Time;durP1;ratioP1;P1;durP2;ratioP2;P2;SDS_P1;SDS_P2;PMS_P1;PMS_P2;Temp;Humidity;BMP_temperature;BMP_pressure;BME280_temperature;BME280_humidity;BME280_pressure;Samples;Min_cycle;Max_cycle;Signal;HPM_P1;HPM_P2
2022/11/04 00:01:04;;;;;;;8.40;3.70;;;11.10;83.00;;;;;;5015595;28;20197;-89
2022/11/04 00:03:30;;;;;;;9.57;4.03;;;11.10;83.20;;;;;;5014659;28;20181;-90
2022/11/04 00:06:00;;;;;;;11.43;3.97;;;11.10;83.10;;;;;;5014354;28;20181;-90
2022/11/04 00:08:25;;;;;;;6.60;3.93;;;11.10;83.20;;;;;;5014600;28;20611;-90
2022/11/04 00:13:42;;;;;;;7.67;3.40;;;11.20;83.20;;;;;;5015895;28;20298;-90
2022/11/04 00:18:53;;;;;;;16.30;4.03;;;11.20;83.20;;;;;;5015757;28;20261;-90
2022/11/04 00:29:32;;;;;;;9.47;3.73;;;11.20;83.60;;;;;;5015141;28;20185;-89
2022/11/04 00:34:42;;;;;;;7.20;3.40;;;11.20;84.00;;;;;;5014996;28;20204;-90
2022/11/04 00:37:07;;;;;;;9.97;3.87;;;11.20;84.30;;;;;;5013345;28;20189;-89
2022/11/04 00:39:33;;;;;;;9.43;4.20;;;11.20;84.40;;;;;;5013403;28;20199;-89
2022/11/04 00:41:58;;;;;;;9.07;4.33;;;11.20;84.60;;;;;;5013179;28;20288;-90
2022/11/04 00:44:24;;;;;;;10.37;3.83;;;11.20;84.80;;;;;;5013293;28;20547;-90
2022/11/04 00:46:49;;;;;;;8.60;3.87;;;11.10;85.20;;;;;;5013643;28;20182;-90
2022/11/04 00:49:15;;;;;;;8.93;3.73;;;11.10;85.30;;;;;;5013801;28;20682;-90
2022/11/04 00:51:41;;;;;;;11.23;5.40;;;11.10;85.60;;;;;;5013332;28;20209;-90
2022/11/04 00:54:06;;;;;;;12.13;4.27;;;11.10;85.70;;;;;;5013054;28;20201;-90
2022/11/04 00:56:34;;;;;;;5.20;3.47;;;11.10;85.90;;;;;;5013291;28;20177;-90
2022/11/04 00:59:00;;;;;;;6.10;3.80;;;11.20;85.90;;;;;;5013248;28;20235;-90
2022/11/04 01:01:26;;;;;;;12.20;3.70;;;11.10;85.90;;;;;;5014393;28;20201;-91
2022/11/04 01:03:52;;;;;;;10.67;3.90;;;11.20;86.10;;;;;;5013763;28;20181;-90
2022/11/04 01:06:19;;;;;;;8.00;4.10;;;11.20;86.10;;;;;;5013014;28;20185;-90
2022/11/04 01:08:46;;;;;;;7.90;3.97;;;11.10;86.30;;;;;;5014384;28;20177;-90
2022/11/04 01:11:12;;;;;;;7.97;4.20;;;11.20;86.80;;;;;;5013179;28;20182;-88
2022/11/04 01:13:39;;;;;;;10.73;5.87;;;11.20;86.80;;;;;;5013251;28;20205;-91
2022/11/04 01:16:10;;;;;;;7.20;4.83;;;11.10;87.00;;;;;;5014274;28;20252;-91
2022/11/04 01:18:36;;;;;;;10.43;4.87;;;11.00;87.30;;;;;;5013562;28;20187;-91
2022/11/04 01:21:03;;;;;;;6.37;3.80;;;11.10;87.40;;;;;;5012508;28;20544;-90
2022/11/04 01:23:29;;;;;;;9.23;4.63;;;11.10;87.40;;;;;;5013173;28;20184;-91
2022/11/04 01:25:54;;;;;;;12.83;4.70;;;11.10;87.50;;;;;;5014067;28;20185;-91
2022/11/04 01:28:20;;;;;;;12.27;4.60;;;11.10;87.60;;;;;;5014539;28;20199;-91
2022/11/04 01:30:46;;;;;;;10.40;5.30;;;11.00;87.80;;;;;;5013784;28;20564;-90
2022/11/04 01:33:11;;;;;;;11.57;7.83;;;11.10;87.90;;;;;;5012585;28;20206;-91
2022/11/04 01:35:37;;;;;;;12.20;6.77;;;11.00;88.10;;;;;;5012777;28;20255;-91
2022/11/04 01:38:02;;;;;;;12.33;7.30;;;11.00;88.30;;;;;;5013744;28;20182;-91
2022/11/04 01:40:28;;;;;;;10.17;5.10;;;11.10;88.50;;;;;;5012477;28;20177;-91
2022/11/04 01:42:54;;;;;;;9.50;4.93;;;11.00;88.50;;;;;;5012513;28;20208;-91
2022/11/04 01:45:20;;;;;;;7.27;5.07;;;11.00;88.70;;;;;;5012563;28;20643;-91
2022/11/04 01:47:58;;;;;;;13.03;5.13;;;11.00;88.90;;;;;;5012444;28;20226;-90
2022/11/04 01:50:27;;;;;;;9.27;5.40;;;11.00;88.90;;;;;;5012622;28;20201;-91
2022/11/04 01:53:06;;;;;;;6.83;4.50;;;11.00;89.00;;;;;;5012646;28;20772;-91
2022/11/04 01:55:34;;;;;;;12.00;4.53;;;11.10;89.00;;;;;;5012577;28;20165;-91
2022/11/04 01:58:04;;;;;;;8.40;4.57;;;11.10;89.00;;;;;;5013301;28;20173;-91
2022/11/04 02:00:30;;;;;;;8.43;4.63;;;11.00;89.20;;;;;;5013542;28;20173;-91
2022/11/04 02:02:58;;;;;;;9.07;4.43;;;11.00;89.10;;;;;;5012156;28;20193;-90
2022/11/04 02:05:23;;;;;;;7.83;4.20;;;11.00;89.40;;;;;;5013446;28;20166;-91
2022/11/04 02:07:53;;;;;;;6.90;4.63;;;11.00;89.60;;;;;;5012254;28;20185;-91
2022/11/04 02:10:22;;;;;;;8.57;4.20;;;11.00;89.60;;;;;;5012492;28;20266;-91
2022/11/04 02:12:48;;;;;;;10.40;5.53;;;11.10;89.50;;;;;;5012278;28;20209;-90
2022/11/04 02:15:14;;;;;;;8.30;4.60;;;11.10;89.50;;;;;;5012606;28;20227;-90
2022/11/04 02:18:15;;;;;;;9.63;4.73;;;11.10;89.50;;;;;;5012182;28;20189;-90
2022/11/04 02:21:14;;;;;;;6.60;4.10;;;11.10;89.50;;;;;;5012320;28;20672;-90
2022/11/04 02:24:02;;;;;;;7.80;4.30;;;11.10;89.60;;;;;;5012481;28;20192;-90
2022/11/04 02:26:33;;;;;;;8.13;4.17;;;11.10;89.70;;;;;;5012066;28;20177;-91
2022/11/04 02:29:15;;;;;;;6.43;4.73;;;11.10;89.70;;;;;;5013333;28;20162;-90
2022/11/04 02:32:01;;;;;;;10.67;4.87;;;11.10;89.80;;;;;;5013728;28;20201;-91
2022/11/04 02:34:44;;;;;;;9.53;5.10;;;11.20;89.70;;;;;;5016733;28;20192;-90
2022/11/04 02:37:28;;;;;;;9.50;4.90;;;11.20;89.70;;;;;;5015597;28;20174;-91
2022/11/04 02:40:35;;;;;;;8.90;4.80;;;11.10;89.70;;;;;;5015658;28;20172;-91
2022/11/04 02:43:17;;;;;;;9.47;4.90;;;11.20;89.80;;;;;;5002478;28;20348;-90
2022/11/04 02:45:46;;;;;;;6.57;4.93;;;11.20;89.80;;;;;;5015894;28;20177;-90
2022/11/04 02:48:19;;;;;;;12.00;5.47;;;11.10;89.70;;;;;;5016856;28;20261;-91
2022/11/04 02:50:58;;;;;;;7.90;4.60;;;11.10;89.70;;;;;;5016820;28;20164;-90
2022/11/04 02:53:31;;;;;;;8.53;4.80;;;11.10;89.60;;;;;;5015263;28;20299;-90
2022/11/04 02:55:59;;;;;;;12.17;5.30;;;11.20;89.60;;;;;;5015256;28;20678;-90
2022/11/04 02:58:33;;;;;;;11.67;5.07;;;11.20;89.50;;;;;;5015196;28;20180;-91
2022/11/04 03:01:00;;;;;;;8.50;5.10;;;11.20;89.30;;;;;;5016101;28;20212;-90
2022/11/04 03:03:29;;;;;;;11.03;5.73;;;11.20;89.20;;;;;;5015249;28;20275;-90
2022/11/04 03:05:57;;;;;;;7.23;5.13;;;11.20;89.20;;;;;;5015978;28;20177;-90
2022/11/04 03:08:40;;;;;;;7.40;5.40;;;11.20;89.20;;;;;;5014921;28;20188;-90
2022/11/04 03:11:16;;;;;;;11.80;6.83;;;11.20;89.20;;;;;;5014985;28;20189;-90
2022/11/04 03:13:59;;;;;;;10.73;5.20;;;11.30;89.10;;;;;;5015138;28;20244;-90
2022/11/04 03:16:36;;;;;;;9.90;5.47;;;11.20;89.00;;;;;;5014974;28;20264;-91
2022/11/04 03:19:07;;;;;;;9.27;6.03;;;11.20;89.00;;;;;;5015203;28;20171;-91
2022/11/04 03:21:37;;;;;;;7.67;5.13;;;11.30;88.90;;;;;;5015956;28;20193;-90
2022/11/04 03:24:04;;;;;;;7.57;5.37;;;11.30;88.90;;;;;;5014734;28;20173;-90
2022/11/04 03:26:32;;;;;;;10.23;6.23;;;11.30;89.00;;;;;;5014779;28;20750;-90
2022/11/04 03:29:36;;;;;;;6.50;5.87;;;11.30;89.00;;;;;;5014613;28;20177;-91
2022/11/04 03:32:20;;;;;;;7.60;6.10;;;11.40;89.00;;;;;;4974992;28;20599;-91
2022/11/04 03:34:45;;;;;;;13.17;6.03;;;11.40;88.90;;;;;;5012107;28;20310;-90
2022/11/04 03:37:11;;;;;;;10.17;6.00;;;11.40;88.90;;;;;;5014589;28;20169;-90
2022/11/04 03:39:37;;;;;;;8.10;5.67;;;11.40;89.00;;;;;;5014562;28;20263;-90
2022/11/04 03:42:18;;;;;;;9.33;5.63;;;11.40;89.00;;;;;;5015503;28;20199;-90
2022/11/04 03:44:52;;;;;;;7.60;5.60;;;11.40;89.00;;;;;;5014856;28;20631;-90
2022/11/04 03:47:21;;;;;;;7.47;5.37;;;11.40;89.10;;;;;;5014807;28;20220;-90
2022/11/04 03:49:48;;;;;;;8.67;6.07;;;11.50;89.10;;;;;;5014390;28;20178;-90
2022/11/04 03:52:16;;;;;;;8.97;5.93;;;11.50;89.10;;;;;;5015156;28;20197;-90
2022/11/04 03:54:42;;;;;;;7.13;5.87;;;11.50;88.90;;;;;;5014774;28;20205;-90
2022/11/04 03:57:34;;;;;;;8.43;5.77;;;11.50;88.80;;;;;;5014546;28;20181;-90
2022/11/04 04:00:09;;;;;;;6.13;4.10;;;11.60;88.60;;;;;;5014263;28;20176;-90
2022/11/04 04:02:47;;;;;;;11.27;5.67;;;11.60;88.30;;;;;;5014169;28;20215;-90
2022/11/04 04:05:23;;;;;;;8.50;5.73;;;11.70;87.90;;;;;;5014112;28;20165;-90
2022/11/04 04:08:13;;;;;;;7.93;5.37;;;11.70;88.00;;;;;;5014279;28;20172;-90
2022/11/04 04:10:56;;;;;;;6.13;5.43;;;11.70;87.70;;;;;;4986335;28;20264;-90
2022/11/04 04:13:36;;;;;;;6.63;5.43;;;11.70;87.10;;;;;;5015377;28;20593;-90
2022/11/04 04:16:33;;;;;;;5.50;4.37;;;11.70;87.00;;;;;;5014613;28;20224;-90
2022/11/04 04:19:05;;;;;;;4.87;3.60;;;11.70;86.60;;;;;;5015181;28;20157;-90
2022/11/04 04:21:39;;;;;;;5.37;3.77;;;11.70;86.70;;;;;;5014016;28;20190;-90
2022/11/04 04:29:37;;;;;;;5.07;4.17;;;11.60;86.20;;;;;;5015750;28;20169;-90
2022/11/04 04:32:04;;;;;;;4.57;3.83;;;11.50;87.00;;;;;;5013972;28;20211;-90
2022/11/04 04:34:31;;;;;;;6.10;3.80;;;11.40;86.90;;;;;;5013953;28;20201;-89
2022/11/04 04:37:05;;;;;;;3.97;3.33;;;11.40;86.50;;;;;;5013926;28;20170;-90
2022/11/04 04:45:25;;;;;;;4.43;3.03;;;11.40;85.70;;;;;;5015616;28;20172;-90
2022/11/04 04:47:51;;;;;;;4.13;2.37;;;11.30;85.80;;;;;;5013959;28;20170;-90
2022/11/04 04:50:19;;;;;;;2.30;2.10;;;11.30;85.20;;;;;;5014221;28;20181;-90
2022/11/04 04:52:48;;;;;;;4.10;2.63;;;11.30;84.80;;;;;;5013742;28;20207;-90
2022/11/04 04:55:15;;;;;;;5.33;2.33;;;11.30;85.10;;;;;;5014475;28;20177;-90
2022/11/04 04:57:41;;;;;;;2.37;2.03;;;11.30;84.50;;;;;;5013716;28;20182;-90
2022/11/04 05:00:10;;;;;;;2.30;2.10;;;11.20;84.90;;;;;;5014506;28;20166;-90
2022/11/04 05:02:36;;;;;;;1.90;1.73;;;11.10;85.40;;;;;;5013372;28;20189;-90
2022/11/04 05:05:02;;;;;;;2.77;2.00;;;11.10;85.10;;;;;;5014542;28;20173;-90
2022/11/04 05:07:27;;;;;;;2.47;2.00;;;11.10;85.00;;;;;;5013466;28;20559;-90
2022/11/04 05:09:53;;;;;;;3.50;2.50;;;11.10;85.10;;;;;;5013351;28;20185;-90
2022/11/04 05:12:18;;;;;;;2.00;1.80;;;11.10;85.00;;;;;;5013350;28;20216;-90
2022/11/04 05:14:44;;;;;;;3.17;2.30;;;11.20;84.90;;;;;;5013603;28;20236;-90
2022/11/04 05:17:09;;;;;;;2.60;1.90;;;11.20;84.60;;;;;;5013061;28;20181;-90
2022/11/04 05:19:35;;;;;;;2.40;2.20;;;11.20;85.00;;;;;;5013171;28;20177;-90
2022/11/04 05:22:01;;;;;;;3.00;1.97;;;11.20;85.00;;;;;;5013039;28;20197;-89
2022/11/04 05:24:26;;;;;;;2.87;2.40;;;11.10;84.90;;;;;;5014715;28;20549;-89
2022/11/04 05:26:52;;;;;;;2.40;2.20;;;11.20;84.70;;;;;;5012971;28;20567;-89
2022/11/04 05:29:17;;;;;;;2.23;2.00;;;11.20;84.90;;;;;;5012917;28;20177;-90
2022/11/04 05:31:43;;;;;;;2.90;2.27;;;11.20;84.90;;;;;;5015193;28;20208;-90
2022/11/04 05:34:10;;;;;;;3.00;2.10;;;11.20;85.00;;;;;;5013130;28;20198;-90
2022/11/04 05:36:36;;;;;;;4.03;2.33;;;11.10;85.10;;;;;;5013964;28;20703;-91
2022/11/04 05:39:02;;;;;;;2.77;2.50;;;11.10;85.30;;;;;;5013029;28;20208;-90
2022/11/04 05:41:28;;;;;;;3.80;2.50;;;11.10;85.10;;;;;;5013421;28;20590;-90
2022/11/04 05:44:01;;;;;;;2.93;2.30;;;11.10;85.40;;;;;;5012879;28;20681;-90
2022/11/04 05:46:28;;;;;;;3.20;2.43;;;11.10;85.60;;;;;;5013706;28;20193;-90
2022/11/04 05:48:53;;;;;;;2.77;2.53;;;11.10;85.30;;;;;;5012591;28;20272;-90
2022/11/04 05:51:22;;;;;;;2.90;2.60;;;11.00;85.60;;;;;;5013669;28;20266;-90
2022/11/04 05:53:48;;;;;;;2.67;2.43;;;11.00;85.90;;;;;;5012675;28;20205;-90
2022/11/04 05:56:14;;;;;;;4.83;2.90;;;11.00;86.00;;;;;;5012570;28;20597;-90
2022/11/04 05:58:39;;;;;;;2.63;2.43;;;10.90;86.10;;;;;;5012971;28;20173;-90
2022/11/04 06:01:32;;;;;;;2.93;2.73;;;10.90;86.40;;;;;;5012426;28;20624;-91
2022/11/04 06:03:59;;;;;;;4.33;2.93;;;10.90;86.50;;;;;;5011924;28;20185;-90
2022/11/04 06:06:27;;;;;;;5.90;2.93;;;10.90;86.50;;;;;;5014252;28;20215;-90
2022/11/04 06:08:54;;;;;;;3.23;2.93;;;10.80;86.70;;;;;;5016401;28;20300;-90
2022/11/04 06:11:21;;;;;;;3.77;3.00;;;10.80;86.60;;;;;;5016326;28;20205;-90
2022/11/04 06:13:47;;;;;;;3.97;3.23;;;10.80;86.80;;;;;;5016543;28;20217;-90
2022/11/04 06:16:12;;;;;;;4.03;3.33;;;10.80;86.90;;;;;;5016261;28;20312;-90
2022/11/04 06:18:38;;;;;;;6.30;3.63;;;10.80;86.90;;;;;;5016511;28;20665;-90
2022/11/04 06:21:25;;;;;;;3.90;3.13;;;10.70;86.90;;;;;;5016012;28;20177;-89
2022/11/04 06:23:53;;;;;;;13.30;4.10;;;10.70;86.90;;;;;;5017176;28;20170;-90
2022/11/04 06:26:19;;;;;;;6.20;4.27;;;10.70;87.10;;;;;;5016982;28;20177;-87
2022/11/04 06:28:45;;;;;;;4.50;4.10;;;10.70;87.20;;;;;;5016631;28;20587;-90
2022/11/04 06:31:11;;;;;;;5.83;4.60;;;10.60;87.20;;;;;;5016869;28;20185;-90
2022/11/04 06:33:37;;;;;;;6.63;4.13;;;10.60;87.30;;;;;;5015776;28;20205;-90
2022/11/04 06:36:05;;;;;;;6.63;5.30;;;10.60;87.20;;;;;;5016087;28;20268;-90
2022/11/04 06:38:32;;;;;;;6.23;4.43;;;10.60;87.40;;;;;;5015874;28;20192;-90
2022/11/04 06:40:57;;;;;;;6.80;5.13;;;10.60;87.50;;;;;;5015864;28;20276;-90
2022/11/04 06:43:23;;;;;;;6.03;5.43;;;10.50;87.60;;;;;;5015733;28;20291;-90
2022/11/04 06:45:57;;;;;;;8.23;5.77;;;10.50;87.90;;;;;;5015575;28;20191;-90
2022/11/04 06:48:22;;;;;;;9.07;6.03;;;10.50;87.80;;;;;;5015831;28;20595;-90
2022/11/04 06:50:48;;;;;;;9.17;5.70;;;10.50;88.00;;;;;;5015748;28;20195;-90
2022/11/04 06:53:13;;;;;;;6.00;5.47;;;10.40;88.00;;;;;;5016440;28;20268;-90
2022/11/04 06:55:39;;;;;;;6.87;5.30;;;10.40;88.00;;;;;;5015886;28;20265;-90
2022/11/04 06:58:04;;;;;;;5.97;5.37;;;10.40;87.80;;;;;;5015569;28;20276;-90
2022/11/04 07:00:30;;;;;;;7.53;4.90;;;10.30;87.90;;;;;;5016582;28;20311;-88
2022/11/04 07:02:56;;;;;;;5.97;4.73;;;10.30;88.00;;;;;;5015738;28;20216;-90
2022/11/04 07:05:21;;;;;;;5.97;4.60;;;10.40;87.40;;;;;;5015438;28;20219;-90
2022/11/04 07:07:47;;;;;;;6.70;4.37;;;10.30;87.70;;;;;;5015696;28;20177;-90
2022/11/04 07:10:12;;;;;;;3.90;3.60;;;10.30;87.80;;;;;;5015921;28;20535;-90
2022/11/04 07:12:38;;;;;;;4.27;3.67;;;10.30;87.50;;;;;;5014911;28;20239;-90
2022/11/04 07:15:04;;;;;;;4.03;3.33;;;10.30;87.40;;;;;;5015463;28;20213;-90
2022/11/04 07:17:30;;;;;;;4.93;3.50;;;10.40;86.90;;;;;;5014418;28;20755;-90
2022/11/04 07:19:55;;;;;;;3.40;3.10;;;10.40;87.10;;;;;;5015010;28;20197;-90
2022/11/04 07:22:21;;;;;;;3.70;3.37;;;10.40;87.10;;;;;;5015228;28;20617;-89
2022/11/04 07:24:46;;;;;;;4.13;3.30;;;10.40;87.00;;;;;;5014897;28;20558;-90
2022/11/04 07:27:12;;;;;;;3.80;3.50;;;10.30;87.30;;;;;;5014968;28;20266;-89
2022/11/04 07:29:37;;;;;;;4.30;3.87;;;10.40;87.20;;;;;;5015208;28;20241;-88
2022/11/04 07:32:03;;;;;;;5.17;4.07;;;10.30;87.40;;;;;;5016969;28;20200;-89
2022/11/04 07:34:29;;;;;;;5.10;4.60;;;10.30;87.70;;;;;;5015295;28;20271;-89
2022/11/04 07:36:54;;;;;;;6.87;5.10;;;10.30;87.90;;;;;;5017370;28;20177;-89
2022/11/04 07:39:20;;;;;;;6.57;5.30;;;10.30;88.00;;;;;;5015198;28;20250;-90
2022/11/04 07:41:45;;;;;;;6.97;6.10;;;10.30;88.30;;;;;;5015801;28;20189;-90
2022/11/04 07:44:11;;;;;;;6.53;5.83;;;10.30;88.30;;;;;;5014464;28;20571;-89
2022/11/04 07:46:37;;;;;;;7.20;6.50;;;10.30;88.50;;;;;;5014382;28;20547;-89
2022/11/04 07:49:03;;;;;;;11.53;6.27;;;10.30;88.50;;;;;;5015844;28;20177;-89
2022/11/04 07:51:31;;;;;;;7.40;6.47;;;10.30;88.30;;;;;;5014520;28;20572;-89
2022/11/04 07:53:57;;;;;;;7.63;6.83;;;10.30;88.20;;;;;;5016136;28;20720;-91
2022/11/04 07:56:22;;;;;;;9.47;7.40;;;10.40;88.20;;;;;;5014907;28;20527;-90
2022/11/04 07:58:48;;;;;;;8.30;7.50;;;10.40;88.20;;;;;;5015188;28;20241;-91
2022/11/04 08:01:18;;;;;;;12.63;7.40;;;10.40;88.20;;;;;;5014639;28;20173;-91
2022/11/04 08:03:44;;;;;;;8.40;7.47;;;10.50;88.30;;;;;;5015446;28;20701;-90
2022/11/04 08:06:12;;;;;;;9.10;6.67;;;10.50;87.90;;;;;;5014066;28;20185;-90
2022/11/04 08:08:37;;;;;;;7.57;6.77;;;10.40;88.20;;;;;;5014387;28;20268;-90
2022/11/04 08:11:09;;;;;;;7.50;6.80;;;10.40;87.80;;;;;;5015452;28;20208;-90
2022/11/04 08:13:36;;;;;;;10.50;7.00;;;10.40;87.90;;;;;;5014143;28;20706;-89
2022/11/04 08:16:04;;;;;;;11.17;7.07;;;10.40;87.90;;;;;;5014273;28;20180;-89
2022/11/04 08:18:31;;;;;;;7.37;6.27;;;10.50;87.80;;;;;;5014716;28;20211;-90
2022/11/04 08:20:56;;;;;;;7.83;6.87;;;10.50;88.00;;;;;;5014640;28;20189;-90
2022/11/04 08:23:23;;;;;;;7.10;5.90;;;10.50;88.00;;;;;;5014144;28;20193;-90
2022/11/04 08:25:51;;;;;;;7.83;5.90;;;10.50;87.70;;;;;;5014402;28;20323;-90
2022/11/04 08:28:17;;;;;;;8.17;6.30;;;10.60;87.60;;;;;;5014006;28;20267;-90
2022/11/04 08:31:01;;;;;;;6.80;6.20;;;10.60;87.60;;;;;;5015170;28;20181;-91
2022/11/04 08:33:28;;;;;;;9.17;6.60;;;10.50;87.80;;;;;;5014401;28;20201;-90
2022/11/04 08:35:57;;;;;;;6.23;5.60;;;10.50;87.70;;;;;;5017162;28;20197;-91
2022/11/04 08:38:23;;;;;;;7.70;6.03;;;10.60;87.70;;;;;;5017665;28;20174;-90
2022/11/04 08:40:48;;;;;;;6.17;5.10;;;10.60;87.70;;;;;;5015305;28;20204;-91
2022/11/04 08:43:14;;;;;;;5.80;5.30;;;10.60;87.60;;;;;;5014665;28;20701;-91
2022/11/04 08:45:45;;;;;;;7.37;3.93;;;10.60;87.60;;;;;;5014548;28;20174;-91
2022/11/04 08:48:12;;;;;;;7.27;4.30;;;10.70;87.40;;;;;;5015524;28;20165;-90
2022/11/04 08:50:38;;;;;;;4.23;3.43;;;10.70;87.30;;;;;;5015115;28;20174;-90
2022/11/04 08:53:04;;;;;;;5.50;3.53;;;10.70;87.00;;;;;;5014367;28;20209;-90
2022/11/04 08:55:31;;;;;;;3.03;2.80;;;10.80;86.90;;;;;;5014442;28;20169;-90
2022/11/04 08:57:56;;;;;;;3.70;2.60;;;10.80;87.20;;;;;;5014576;28;20177;-91
2022/11/04 09:00:22;;;;;;;3.17;2.40;;;10.80;86.80;;;;;;5015551;28;20169;-91
2022/11/04 09:02:48;;;;;;;4.40;2.00;;;10.80;86.80;;;;;;5015236;28;20193;-90
2022/11/04 09:05:14;;;;;;;3.33;2.00;;;10.80;86.60;;;;;;5014970;28;20185;-90
2022/11/04 09:07:41;;;;;;;3.30;1.90;;;10.80;86.30;;;;;;5014505;28;20182;-90
2022/11/04 09:10:09;;;;;;;3.23;2.00;;;10.80;86.30;;;;;;5014365;28;20182;-91
2022/11/04 09:12:34;;;;;;;5.17;1.93;;;10.80;86.30;;;;;;5014441;28;20267;-91
2022/11/04 09:15:00;;;;;;;5.00;1.87;;;10.90;86.20;;;;;;5014714;28;20212;-91
2022/11/04 09:17:26;;;;;;;3.53;1.90;;;10.90;85.80;;;;;;5015299;28;20188;-91
2022/11/04 09:19:52;;;;;;;2.57;1.73;;;11.00;86.30;;;;;;5014534;28;20184;-89
2022/11/04 09:22:18;;;;;;;3.33;2.50;;;10.90;86.10;;;;;;5013779;28;20204;-90
2022/11/04 09:24:43;;;;;;;3.87;2.67;;;11.00;86.50;;;;;;5013219;28;20189;-89
2022/11/04 09:27:09;;;;;;;2.30;2.10;;;11.00;85.70;;;;;;5013143;28;20193;-90
2022/11/04 09:29:35;;;;;;;4.30;2.80;;;11.10;85.60;;;;;;5012944;28;20180;-90
2022/11/04 09:32:05;;;;;;;2.60;2.40;;;11.20;85.40;;;;;;5014688;28;20663;-91
2022/11/04 09:34:33;;;;;;;8.63;2.90;;;11.30;85.50;;;;;;5014824;28;20735;-91
2022/11/04 09:36:59;;;;;;;3.13;2.70;;;11.40;85.20;;;;;;5015189;28;20178;-90
2022/11/04 09:39:25;;;;;;;2.30;2.10;;;11.40;85.00;;;;;;5019552;28;20176;-90
2022/11/04 09:42:22;;;;;;;5.07;2.73;;;11.40;84.90;;;;;;5016071;28;20228;-90
2022/11/04 09:45:04;;;;;;;4.13;2.50;;;11.30;84.90;;;;;;5016112;28;20196;-91
2022/11/04 09:47:32;;;;;;;2.57;2.23;;;11.30;85.40;;;;;;5014765;28;20520;-91
2022/11/04 09:49:59;;;;;;;2.37;2.17;;;11.20;85.40;;;;;;5014740;28;20177;-91
2022/11/04 09:52:29;;;;;;;3.17;2.37;;;11.20;85.50;;;;;;5014065;28;20208;-90
2022/11/04 09:55:15;;;;;;;2.77;2.30;;;11.30;85.60;;;;;;5014584;28;20268;-91
2022/11/04 09:57:40;;;;;;;3.23;2.40;;;11.50;85.00;;;;;;5016674;28;20536;-91
2022/11/04 10:00:13;;;;;;;4.03;2.50;;;11.70;85.10;;;;;;5015363;28;20237;-91
2022/11/04 10:02:53;;;;;;;3.23;1.80;;;11.80;84.50;;;;;;5016735;28;20197;-90
2022/11/04 10:05:38;;;;;;;2.20;1.73;;;11.90;84.30;;;;;;5017025;28;20224;-90
2022/11/04 10:08:30;;;;;;;2.00;1.87;;;12.10;84.40;;;;;;5069220;23;20786;-87
2022/11/04 10:11:06;;;;;;;4.47;2.07;;;12.20;83.60;;;;;;5025620;28;20233;-89
2022/11/04 10:13:54;;;;;;;1.83;1.40;;;12.30;84.00;;;;;;5009257;28;20197;-91
2022/11/04 10:16:55;;;;;;;2.60;1.73;;;12.30;83.30;;;;;;5009051;28;20175;-91
2022/11/04 10:19:46;;;;;;;6.27;1.40;;;12.30;82.90;;;;;;5025296;28;20194;-91
2022/11/04 10:22:32;;;;;;;3.50;1.40;;;12.40;82.40;;;;;;5017921;28;20190;-91
2022/11/04 10:25:06;;;;;;;3.53;1.53;;;12.40;81.70;;;;;;5016811;28;20165;-91
2022/11/04 10:27:35;;;;;;;1.53;1.33;;;12.40;82.70;;;;;;5016927;28;20224;-91
2022/11/04 10:30:14;;;;;;;1.63;1.40;;;12.40;81.80;;;;;;5016182;28;20158;-91
2022/11/04 10:32:49;;;;;;;3.27;1.40;;;12.40;81.90;;;;;;5015834;28;20263;-91
2022/11/04 10:35:41;;;;;;;6.13;1.90;;;12.50;81.10;;;;;;5015788;28;20206;-91
2022/11/04 10:38:21;;;;;;;6.80;1.93;;;12.60;81.40;;;;;;5013916;28;20173;-92
2022/11/04 10:40:54;;;;;;;3.93;2.40;;;12.80;81.50;;;;;;5016986;28;20206;-91
2022/11/04 10:43:35;;;;;;;2.87;1.80;;;12.70;81.10;;;;;;5016687;28;20281;-92
2022/11/04 10:46:29;;;;;;;2.50;1.37;;;12.80;81.30;;;;;;5014732;28;20169;-92
2022/11/04 10:49:24;;;;;;;4.23;1.70;;;12.80;81.40;;;;;;5010217;28;20167;-91
2022/11/04 10:51:50;;;;;;;3.80;1.90;;;12.80;80.80;;;;;;5009388;28;20249;-92
2022/11/04 10:54:26;;;;;;;3.00;1.50;;;12.90;81.10;;;;;;5012958;28;20221;-92
2022/11/04 10:56:54;;;;;;;3.00;1.33;;;13.20;80.80;;;;;;5018862;28;20170;-92
2022/11/04 10:59:49;;;;;;;6.00;2.27;;;13.00;79.50;;;;;;5019376;28;20174;-91
2022/11/04 11:02:16;;;;;;;6.53;2.13;;;13.10;80.10;;;;;;5015643;28;20210;-90
2022/11/04 11:04:44;;;;;;;2.83;1.40;;;13.30;79.80;;;;;;5013280;28;20229;-90
2022/11/04 11:07:11;;;;;;;5.33;1.50;;;13.20;78.30;;;;;;5016004;28;20201;-90
2022/11/04 11:10:18;;;;;;;3.73;1.53;;;13.20;79.30;;;;;;5013165;28;20185;-90
2022/11/04 11:13:42;;;;;;;4.60;1.47;;;13.40;79.80;;;;;;4971731;28;20202;-91
2022/11/04 11:16:31;;;;;;;3.03;1.63;;;13.30;79.20;;;;;;4908509;29;20223;-90
2022/11/04 11:19:30;;;;;;;6.57;2.03;;;13.10;79.50;;;;;;5009599;28;20193;-92
2022/11/04 11:22:01;;;;;;;6.63;1.73;;;13.20;79.50;;;;;;5023830;28;20238;-91
2022/11/04 11:25:07;;;;;;;5.67;1.50;;;13.20;79.60;;;;;;5006937;28;20205;-92
2022/11/04 11:27:55;;;;;;;7.17;1.70;;;13.00;79.60;;;;;;4985082;28;20190;-90
2022/11/04 11:30:42;;;;;;;7.83;1.80;;;12.80;80.40;;;;;;4999470;28;20162;-91
2022/11/04 11:34:01;;;;;;;5.67;1.90;;;13.00;80.20;;;;;;5020318;28;20194;-91
2022/11/04 11:36:58;;;;;;;6.33;2.77;;;13.10;81.20;;;;;;5003992;28;20182;-92
2022/11/04 11:39:53;;;;;;;6.50;1.90;;;13.20;80.60;;;;;;5022557;28;20640;-92
2022/11/04 11:42:19;;;;;;;2.80;1.63;;;13.10;79.60;;;;;;4998359;28;20210;-91
2022/11/04 11:44:53;;;;;;;8.80;2.17;;;13.30;79.00;;;;;;5008538;28;20205;-92
2022/11/04 11:47:57;;;;;;;6.23;1.53;;;13.50;78.80;;;;;;5012975;28;20163;-92
2022/11/04 11:51:12;;;;;;;5.80;1.37;;;13.40;78.20;;;;;;5000741;28;20186;-91
2022/11/04 11:54:01;;;;;;;6.00;1.93;;;13.50;78.60;;;;;;4979959;28;20260;-92
2022/11/04 11:56:51;;;;;;;4.73;1.50;;;13.70;78.00;;;;;;4999354;28;20186;-91
2022/11/04 12:00:08;;;;;;;5.63;1.80;;;13.90;77.70;;;;;;5016969;28;20180;-92
2022/11/04 12:03:00;;;;;;;5.63;2.43;;;13.80;77.20;;;;;;4968546;28;20210;-91
2022/11/04 12:06:03;;;;;;;6.03;1.70;;;13.60;77.80;;;;;;4946055;28;20188;-91
2022/11/04 12:11:12;;;;;;;5.60;2.50;;;13.60;76.80;;;;;;5035817;28;20214;-91
2022/11/04 12:13:47;;;;;;;9.10;2.23;;;13.30;76.80;;;;;;4998160;28;20210;-91
2022/11/04 12:16:35;;;;;;;5.03;1.90;;;13.20;77.50;;;;;;4999847;28;20177;-91
2022/11/04 12:19:50;;;;;;;8.10;1.90;;;13.10;78.00;;;;;;5001228;28;20183;-91
2022/11/04 12:22:51;;;;;;;4.73;1.70;;;12.90;78.20;;;;;;4983077;28;20677;-90
2022/11/04 12:26:24;;;;;;;9.53;2.00;;;13.00;77.50;;;;;;4920786;29;20183;-92
2022/11/04 12:29:12;;;;;;;6.57;1.90;;;12.80;77.70;;;;;;4858210;29;20191;-92
2022/11/04 12:31:59;;;;;;;7.33;1.90;;;12.70;78.70;;;;;;4864357;29;20199;-91
2022/11/04 12:34:50;;;;;;;8.33;2.00;;;13.00;78.70;;;;;;4916181;28;20291;-93
2022/11/04 12:37:44;;;;;;;5.23;1.63;;;13.30;77.50;;;;;;4993719;28;20166;-91
2022/11/04 12:40:28;;;;;;;3.43;1.63;;;13.40;76.20;;;;;;5014644;28;20225;-91
2022/11/04 12:43:11;;;;;;;4.50;1.70;;;13.30;77.10;;;;;;4994194;28;20264;-91
2022/11/04 12:45:58;;;;;;;7.27;1.80;;;13.30;76.80;;;;;;5006498;28;20198;-91
2022/11/04 12:48:35;;;;;;;6.30;2.17;;;13.50;76.60;;;;;;4993380;28;20631;-91
2022/11/04 12:51:24;;;;;;;5.03;1.80;;;13.40;76.00;;;;;;5009383;28;20185;-92
2022/11/04 12:54:04;;;;;;;3.57;1.53;;;13.30;76.10;;;;;;5011610;28;20201;-91
2022/11/04 12:56:39;;;;;;;4.60;1.77;;;13.10;77.80;;;;;;5008163;28;20174;-91
2022/11/04 12:59:29;;;;;;;5.70;2.00;;;13.40;78.20;;;;;;5003866;28;20170;-91
2022/11/04 13:02:13;;;;;;;4.30;1.70;;;13.30;76.20;;;;;;4998951;28;20202;-91
2022/11/04 13:04:46;;;;;;;5.47;2.03;;;13.60;76.70;;;;;;4984415;28;20233;-91
2022/11/04 13:07:19;;;;;;;5.87;2.00;;;13.80;76.40;;;;;;4983828;28;20234;-91
2022/11/04 13:10:04;;;;;;;6.80;1.73;;;13.80;76.10;;;;;;4983048;28;20255;-91
2022/11/04 13:12:36;;;;;;;5.87;1.80;;;13.80;75.50;;;;;;5003556;28;20202;-91
2022/11/04 13:15:11;;;;;;;3.90;1.40;;;14.00;75.20;;;;;;4982581;28;20377;-91
2022/11/04 13:17:39;;;;;;;6.87;1.67;;;13.90;75.70;;;;;;4983128;28;20166;-90
2022/11/04 13:20:16;;;;;;;4.67;1.80;;;13.80;76.00;;;;;;5001211;28;20174;-91
2022/11/04 13:22:47;;;;;;;6.27;1.90;;;13.60;75.60;;;;;;4999477;28;20190;-91
2022/11/04 13:25:33;;;;;;;4.13;1.60;;;13.70;75.70;;;;;;4981082;28;20182;-91
2022/11/04 13:28:00;;;;;;;8.23;2.00;;;13.80;75.20;;;;;;4998962;28;20170;-91
2022/11/04 13:30:48;;;;;;;5.93;1.90;;;13.60;75.40;;;;;;4981738;28;20185;-91
2022/11/04 13:33:20;;;;;;;7.83;2.13;;;13.70;75.10;;;;;;4981083;28;20212;-92
2022/11/04 13:35:47;;;;;;;5.93;2.30;;;13.70;75.50;;;;;;4999006;28;20269;-89
2022/11/04 13:38:30;;;;;;;3.97;1.93;;;13.50;75.60;;;;;;4998824;28;20213;-91
2022/11/04 13:41:38;;;;;;;7.97;1.77;;;13.30;75.70;;;;;;5000915;28;20167;-91
2022/11/04 13:44:23;;;;;;;7.50;2.00;;;13.30;76.20;;;;;;4998952;28;20178;-91
2022/11/04 13:46:51;;;;;;;8.33;1.70;;;13.30;76.40;;;;;;4981463;28;20265;-92
2022/11/04 13:49:31;;;;;;;4.50;1.87;;;13.30;75.90;;;;;;4981689;28;20209;-91